ROTAER D-AMDT 8/24 Ver mudanças

Teixeira de Freitas ( SNTF ) / TEIXEIRA DE FREITAS, BA 17 31 28S/039 40 06W
AD PUB Governo do Estado UTC-3 VFR L21 , L26 105 (344)

11 - L12 - ( 1460x30 ASPH 31/F/A/X/T L14 , L15 ) - L12 - 29

SBRE (CINDACTA 3)
CMB- [1] PF TF
MET - MET CIVIL –

RMK -

HORÁRIO DE FUNCIONAMENTO
  1. DLY 1000-2100. Demais horários O/R com antecedência de 6HR pelo TEL (71) 99670-9061 ou e-mail: ADMSNTF@SFRANCISCO.NET
INFORMAÇÃO METEOROLÓGICA FORNECIDA
  1. ERAA FREQ 132.350MHZ.
  2. Usar código de localidade SNTF para acessar METAR/SPECI na REDEMET.
INFORMAÇÃO ADICIONAL
  1. OPS de LDG e PRKG O/R pelo TEL (71) 99670-9061 ou e-mail: ADMSNTF@SFRANCISCO.NET.
  2. Contato telefônico: (71) 99670-9061.
DISTÂNCIA(S) DECLARADA(S)
  1.  
RWY TORA(m) TODA(m) ASDA(m) LDA(m) ALT. GEOIDAL(m) COORDENADAS
11 1460 1460 1460 1460
29 1460 1460 1460 1460
COMPL -
  • [1] DLY 1100-2000 O/R com MNM 03HR de antecedência pelo TEL (73) 99903-6387
TEMP (0)

Suplementos AIP (0)

NOTAM (Carregando ...)


Nascer/Por do Sol

08:47

20:29


METAR

142000Z AUTO 16008KT 9999 FEW026 27/27 Q1014=

TAF

141630Z 1418/1506 16010KT 9999 SCT030 TX29/1418Z TN23/1506Z BECMG 1419/1421 14006KT BECMG 1500/1502 18006KT SCT010 RMK PHG=


OPEA/Obstáculos


Cartas (0)


Rotas Preferenciais (0)